createdAt,value
2022-11-10T00:00:41.074Z,43.75
2022-11-10T00:03:10.550Z,45.03
2022-11-10T00:05:40.569Z,46.55
2022-11-10T00:08:12.063Z,43.00
2022-11-10T00:10:55.293Z,44.37
2022-11-10T00:13:23.760Z,48.35
2022-11-10T00:16:09.429Z,49.95
2022-11-10T00:18:37.458Z,48.78
2022-11-10T00:21:09.021Z,49.28
2022-11-10T00:23:37.467Z,49.90
2022-11-10T00:26:11.380Z,45.50
2022-11-10T00:28:39.297Z,46.38
2022-11-10T00:31:08.030Z,44.75
2022-11-10T00:33:37.013Z,46.20
2022-11-10T00:36:05.946Z,46.97
2022-11-10T00:38:35.368Z,50.33
2022-11-10T00:41:03.561Z,45.08
2022-11-10T00:43:32.500Z,41.50
2022-11-10T00:46:00.739Z,45.35
2022-11-10T00:48:28.656Z,51.22
2022-11-10T00:50:56.561Z,49.83
2022-11-10T00:53:24.775Z,56.92
2022-11-10T00:55:54.289Z,62.25
2022-11-10T00:58:22.243Z,54.97
2022-11-10T01:00:50.323Z,60.85
2022-11-10T01:03:19.493Z,58.00
2022-11-10T01:05:47.688Z,56.00
2022-11-10T01:08:15.599Z,57.40
2022-11-10T01:10:43.494Z,52.45
2022-11-10T01:13:12.789Z,51.35
2022-11-10T01:15:41.173Z,50.47
2022-11-10T01:18:09.649Z,47.42
2022-11-10T01:20:37.626Z,45.38
2022-11-10T01:23:05.691Z,44.45
2022-11-10T01:25:33.583Z,39.67
2022-11-10T01:28:01.496Z,45.42
2022-11-10T01:30:31.229Z,39.78
2022-11-10T01:32:59.177Z,42.25
2022-11-10T01:35:27.134Z,43.15
2022-11-10T01:37:55.288Z,42.65
2022-11-10T01:40:23.315Z,42.10
2022-11-10T01:42:54.233Z,46.03
2022-11-10T01:45:47.551Z,45.00
2022-11-10T01:48:19.737Z,46.13
2022-11-10T01:50:49.658Z,45.83
2022-11-10T01:53:24.086Z,47.70
2022-11-10T01:55:53.616Z,42.03
2022-11-10T01:58:25.886Z,41.42
2022-11-10T02:00:55.863Z,41.80
2022-11-10T02:03:30.132Z,40.47
2022-11-10T02:05:58.299Z,39.17
2022-11-10T02:08:27.764Z,39.40
2022-11-10T02:10:56.739Z,44.53
2022-11-10T02:13:24.797Z,45.58
2022-11-10T02:15:54.430Z,44.42
2022-11-10T02:18:22.485Z,46.00
2022-11-10T02:20:51.757Z,46.60
2022-11-10T02:23:45.021Z,48.80
2022-11-10T02:26:15.199Z,46.20
2022-11-10T02:28:43.121Z,43.65
2022-11-10T02:31:11.286Z,47.22
2022-11-10T02:33:39.444Z,40.80
2022-11-10T02:36:09.795Z,47.92
2022-11-10T02:38:37.945Z,48.90
2022-11-10T02:41:06.121Z,45.45
2022-11-10T02:43:34.421Z,42.08
2022-11-10T02:46:02.362Z,43.20
2022-11-10T02:48:30.460Z,48.22
2022-11-10T02:50:58.385Z,45.33
2022-11-10T02:53:27.653Z,47.58
2022-11-10T02:55:55.957Z,39.88
2022-11-10T02:58:23.829Z,40.60
2022-11-10T03:00:51.852Z,40.13
2022-11-10T03:03:20.108Z,40.42
2022-11-10T03:05:48.304Z,40.53
2022-11-10T03:08:16.543Z,38.13
2022-11-10T03:10:45.783Z,39.58
2022-11-10T03:13:13.684Z,37.50
2022-11-10T03:15:41.575Z,39.65
2022-11-10T03:18:09.609Z,41.38
2022-11-10T03:20:37.532Z,45.47
2022-11-10T03:23:06.946Z,45.70
2022-11-10T03:25:35.085Z,45.75
2022-11-10T03:28:04.419Z,46.72
2022-11-10T03:30:32.452Z,50.08
2022-11-10T03:33:00.471Z,56.80
2022-11-10T03:35:28.364Z,61.70
2022-11-10T03:37:56.311Z,67.97
2022-11-10T03:40:24.326Z,68.07
2022-11-10T03:42:52.273Z,71.72
2022-11-10T03:45:21.614Z,69.57
2022-11-10T03:47:50.890Z,68.13
2022-11-10T03:50:20.110Z,70.45
2022-11-10T03:52:48.244Z,73.85
2022-11-10T03:55:19.229Z,79.13
2022-11-10T03:57:47.114Z,78.97
2022-11-10T04:00:16.116Z,82.85
2022-11-10T04:02:45.440Z,79.55
2022-11-10T04:05:30.722Z,78.63
2022-11-10T04:08:17.882Z,74.63
2022-11-10T04:10:46.010Z,79.63
2022-11-10T04:13:31.657Z,75.80
2022-11-10T04:15:59.528Z,78.30
2022-11-10T04:18:29.706Z,79.15
2022-11-10T04:20:59.674Z,74.07
2022-11-10T04:23:31.072Z,77.20
2022-11-10T04:26:18.771Z,76.90
2022-11-10T04:28:47.517Z,78.72
2022-11-10T04:31:16.005Z,78.13
2022-11-10T04:33:45.801Z,77.40
2022-11-10T04:36:15.801Z,73.13
2022-11-10T04:38:44.108Z,73.47
2022-11-10T04:41:12.356Z,69.57
2022-11-10T04:43:40.576Z,66.57
2022-11-10T04:46:12.101Z,67.35
2022-11-10T04:48:40.019Z,67.57
2022-11-10T04:51:09.625Z,70.57
2022-11-10T04:53:37.554Z,71.90
2022-11-10T04:56:05.745Z,71.32
2022-11-10T04:58:33.616Z,71.22
2022-11-10T05:01:01.587Z,62.83
2022-11-10T05:03:29.531Z,69.72
2022-11-10T05:05:57.474Z,69.05
2022-11-10T05:08:26.709Z,71.18
2022-11-10T05:11:04.605Z,71.90
2022-11-10T05:13:32.941Z,75.50
2022-11-10T05:16:01.219Z,70.15
2022-11-10T05:18:29.166Z,73.72
2022-11-10T05:20:57.042Z,74.03
2022-11-10T05:23:41.973Z,69.43
2022-11-10T05:26:12.351Z,77.13
2022-11-10T05:28:41.579Z,73.95
2022-11-10T05:31:09.857Z,72.75
2022-11-10T05:33:38.911Z,76.30
2022-11-10T05:36:07.817Z,75.25
2022-11-10T05:38:42.150Z,71.28
2022-11-10T05:41:11.385Z,66.53
2022-11-10T05:43:39.349Z,68.75
2022-11-10T05:46:07.479Z,70.70
2022-11-10T05:48:35.407Z,69.47
2022-11-10T05:51:03.390Z,70.22
2022-11-10T05:53:31.257Z,73.70
2022-11-10T05:56:00.518Z,67.10
2022-11-10T05:58:28.417Z,66.65
2022-11-10T06:00:56.435Z,60.60
2022-11-10T06:03:24.691Z,61.10
2022-11-10T06:05:53.374Z,65.55
2022-11-10T06:08:21.293Z,70.68
2022-11-10T06:10:49.189Z,72.93
2022-11-10T06:13:18.459Z,73.00
2022-11-10T06:15:50.357Z,71.90
2022-11-10T06:18:18.744Z,75.18
2022-11-10T06:20:47.285Z,72.32
2022-11-10T06:23:17.092Z,72.97
2022-11-10T06:25:45.587Z,74.80
2022-11-10T06:28:14.819Z,72.38
2022-11-10T06:30:44.268Z,72.60
2022-11-10T06:33:12.136Z,71.53
2022-11-10T06:35:40.156Z,71.03
2022-11-10T06:38:10.930Z,71.18
2022-11-10T06:40:38.940Z,69.78
2022-11-10T06:43:06.868Z,71.03
2022-11-10T06:45:34.785Z,72.53
2022-11-10T06:48:06.187Z,72.30
2022-11-10T06:50:34.241Z,71.50
2022-11-10T06:53:02.822Z,72.30
2022-11-10T06:55:31.128Z,74.15
2022-11-10T06:57:59.563Z,68.40
2022-11-10T07:00:28.941Z,65.85
2022-11-10T07:03:01.112Z,65.22
2022-11-10T07:05:30.777Z,67.03
2022-11-10T07:08:03.881Z,64.05
2022-11-10T07:10:31.890Z,68.80
2022-11-10T07:13:00.671Z,61.88
2022-11-10T07:15:28.638Z,68.30
2022-11-10T07:17:56.555Z,72.25
2022-11-10T07:20:26.095Z,75.38
2022-11-10T07:23:00.457Z,74.65
2022-11-10T07:25:29.240Z,82.50
2022-11-10T07:27:57.734Z,74.13
2022-11-10T07:30:26.656Z,81.10
2022-11-10T07:33:02.395Z,79.35
2022-11-10T07:35:31.237Z,79.38
2022-11-10T07:38:03.683Z,76.45
2022-11-10T07:42:59.569Z,79.47
2022-11-10T07:45:28.173Z,78.85
2022-11-10T07:47:59.834Z,78.90
2022-11-10T07:50:27.833Z,83.63
2022-11-10T07:53:05.420Z,81.85
2022-11-10T07:55:33.405Z,83.30
2022-11-10T07:58:01.698Z,88.13
2022-11-10T08:00:30.069Z,80.80
2022-11-10T08:03:02.919Z,81.47
2022-11-10T08:05:30.939Z,77.90
2022-11-10T08:08:00.111Z,78.95
2022-11-10T08:10:29.854Z,76.03
2022-11-10T08:12:58.635Z,79.65
2022-11-10T08:15:29.777Z,76.25
2022-11-10T08:18:00.135Z,70.25
2022-11-10T08:20:28.727Z,66.07
2022-11-10T08:23:00.485Z,68.93
2022-11-10T08:25:34.784Z,63.60
2022-11-10T08:28:05.055Z,54.08
2022-11-10T08:30:33.544Z,51.47
2022-11-10T08:33:04.919Z,51.92
2022-11-10T08:35:35.713Z,55.20
2022-11-10T08:38:09.653Z,50.58
2022-11-10T08:40:39.723Z,55.17
2022-11-10T08:43:08.511Z,54.00
2022-11-10T08:45:36.969Z,50.70
2022-11-10T08:48:06.556Z,54.17
2022-11-10T08:50:34.585Z,54.05
2022-11-10T08:53:03.459Z,49.03
2022-11-10T08:55:31.589Z,51.97
2022-11-10T08:58:01.973Z,48.30
2022-11-10T09:00:30.677Z,52.53
2022-11-10T09:03:04.349Z,49.05
2022-11-10T09:05:32.316Z,50.55
2022-11-10T09:08:00.228Z,48.05
2022-11-10T09:10:28.489Z,48.08
2022-11-10T09:12:59.332Z,50.00
2022-11-10T09:15:28.746Z,40.85
2022-11-10T09:17:59.621Z,45.45
2022-11-10T09:20:28.484Z,36.10
2022-11-10T09:22:56.833Z,39.60
2022-11-10T09:25:25.048Z,35.22
2022-11-10T09:27:52.957Z,44.00
2022-11-10T09:30:21.137Z,31.05
2022-11-10T09:32:54.624Z,30.83
2022-11-10T09:35:22.688Z,29.23
2022-11-10T09:37:50.712Z,38.30
2022-11-10T09:40:22.614Z,29.38
2022-11-10T09:42:51.049Z,30.83
2022-11-10T09:45:27.754Z,26.95
2022-11-10T09:48:02.327Z,28.65
2022-11-10T09:50:41.790Z,28.25
2022-11-10T09:53:16.079Z,23.42
2022-11-10T09:55:46.598Z,27.25
2022-11-10T09:58:16.578Z,22.00
2022-11-10T10:00:51.466Z,25.85
2022-11-10T10:03:25.746Z,24.15
2022-11-10T10:06:03.469Z,24.10
2022-11-10T10:08:45.124Z,24.13
2022-11-10T10:11:26.673Z,23.50
2022-11-10T10:14:14.634Z,20.55
2022-11-10T10:16:51.667Z,21.77
2022-11-10T10:19:29.488Z,20.83
2022-11-10T10:22:18.513Z,16.85
2022-11-10T10:24:46.516Z,23.02
2022-11-10T10:27:20.933Z,21.15
2022-11-10T10:29:50.096Z,13.93
2022-11-10T10:32:19.190Z,22.90
2022-11-10T10:34:48.472Z,19.73
2022-11-10T10:37:24.359Z,18.35
2022-11-10T10:39:55.210Z,19.15
2022-11-10T10:42:31.705Z,24.02
2022-11-10T10:45:14.721Z,21.15
2022-11-10T10:47:43.286Z,22.73
2022-11-10T10:50:27.258Z,19.73
2022-11-10T10:53:08.501Z,16.27
2022-11-10T10:55:37.466Z,18.33
2022-11-10T10:58:19.370Z,18.50
2022-11-10T11:00:49.694Z,18.95
2022-11-10T11:03:26.522Z,17.15
2022-11-10T11:06:08.104Z,18.63
2022-11-10T11:08:36.149Z,18.17
2022-11-10T11:11:12.091Z,22.15
2022-11-10T11:13:40.099Z,21.00
2022-11-10T11:16:12.270Z,18.45
2022-11-10T11:18:41.593Z,18.58
2022-11-10T11:21:24.782Z,13.45
2022-11-10T11:24:18.702Z,20.45
2022-11-10T11:26:53.350Z,16.92
2022-11-10T11:29:34.392Z,18.17
2022-11-10T11:32:18.742Z,20.77
2022-11-10T11:34:57.336Z,15.32
2022-11-10T11:37:33.861Z,16.67
2022-11-10T11:40:15.645Z,19.00
2022-11-10T11:42:52.393Z,18.30
2022-11-10T11:45:25.938Z,18.80
2022-11-10T11:48:11.976Z,17.33
2022-11-10T11:50:44.575Z,13.15
2022-11-10T11:53:27.227Z,17.85
2022-11-10T11:56:06.801Z,15.55
2022-11-10T11:58:44.574Z,14.05
2022-11-10T12:01:25.044Z,16.20
2022-11-10T12:04:23.769Z,16.15
2022-11-10T12:07:00.601Z,15.88
2022-11-10T12:09:39.779Z,15.43
2022-11-10T12:12:24.415Z,19.15
2022-11-10T12:14:57.847Z,14.40
2022-11-10T12:17:38.082Z,15.80
2022-11-10T12:20:22.514Z,14.63
2022-11-10T12:22:58.003Z,15.40
2022-11-10T12:25:32.090Z,17.08
2022-11-10T12:28:09.372Z,18.35
2022-11-10T12:30:38.269Z,15.50
2022-11-10T12:33:13.977Z,13.25
2022-11-10T12:35:45.022Z,16.67
2022-11-10T12:38:19.151Z,15.23
2022-11-10T12:40:52.247Z,18.63
2022-11-10T12:43:26.793Z,14.45
2022-11-10T12:45:59.654Z,14.90
2022-11-10T12:48:35.897Z,15.45
2022-11-10T12:51:09.423Z,17.23
2022-11-10T12:53:40.755Z,22.50
2022-11-10T12:56:16.872Z,17.88
2022-11-10T12:58:44.829Z,16.48
2022-11-10T13:01:16.374Z,16.08
2022-11-10T13:03:56.376Z,14.45
2022-11-10T13:06:28.422Z,16.20
2022-11-10T13:08:56.720Z,14.60
2022-11-10T13:11:32.013Z,14.70
2022-11-10T13:14:01.611Z,12.23
2022-11-10T13:16:51.191Z,15.95
2022-11-10T13:19:54.101Z,12.35
2022-11-10T13:22:34.373Z,15.00
2022-11-10T13:25:41.720Z,17.10
2022-11-10T13:28:12.747Z,14.98
2022-11-10T13:30:44.998Z,13.60
2022-11-10T13:36:02.651Z,13.43
2022-11-10T13:38:38.718Z,15.25
2022-11-10T13:41:20.529Z,10.75
2022-11-10T13:43:51.821Z,12.15
2022-11-10T13:46:21.065Z,12.73
2022-11-10T13:49:15.741Z,12.52
2022-11-10T13:51:49.264Z,13.05
2022-11-10T13:54:45.808Z,11.68
2022-11-10T13:57:31.859Z,13.93
2022-11-10T14:00:03.333Z,12.30
2022-11-10T14:02:52.233Z,11.57
2022-11-10T14:06:05.495Z,13.25
2022-11-10T14:08:49.456Z,11.43
2022-11-10T14:11:26.343Z,13.93
2022-11-10T14:14:00.290Z,13.07
2022-11-10T14:16:33.025Z,14.30
2022-11-10T14:19:05.430Z,12.82
2022-11-10T14:21:45.061Z,9.13
2022-11-10T14:24:18.034Z,10.82
2022-11-10T14:26:51.670Z,11.00
2022-11-10T14:29:40.087Z,13.98
2022-11-10T14:32:16.118Z,12.85
2022-11-10T14:34:48.681Z,12.85
2022-11-10T14:37:22.787Z,14.45
2022-11-10T14:39:53.842Z,15.57
2022-11-10T14:42:25.441Z,10.30
2022-11-10T14:45:07.472Z,9.93
2022-11-10T14:47:37.663Z,12.60
2022-11-10T14:50:08.307Z,14.25
2022-11-10T14:52:40.702Z,14.73
2022-11-10T14:55:14.464Z,9.27
2022-11-10T14:57:42.499Z,13.38
2022-11-10T15:00:15.932Z,8.13
2022-11-10T15:02:45.337Z,10.88
2022-11-10T15:05:15.617Z,12.68
2022-11-10T15:07:46.106Z,13.18
2022-11-10T15:10:20.105Z,10.70
2022-11-10T15:13:00.199Z,14.05
2022-11-10T15:15:28.146Z,11.57
2022-11-10T15:17:57.411Z,9.20
2022-11-10T15:20:33.479Z,11.70
2022-11-10T15:23:02.993Z,11.82
2022-11-10T15:25:38.597Z,12.20
2022-11-10T15:28:18.367Z,10.30
2022-11-10T15:30:53.887Z,13.15
2022-11-10T15:33:27.504Z,12.35
2022-11-10T15:35:57.338Z,9.88
2022-11-10T15:38:31.439Z,11.43
2022-11-10T15:41:11.746Z,15.27
2022-11-10T15:43:40.328Z,14.23
2022-11-10T15:46:18.493Z,9.68
2022-11-10T15:48:49.974Z,14.75
2022-11-10T15:51:25.656Z,12.95
2022-11-10T15:53:54.705Z,14.02
2022-11-10T15:56:25.424Z,13.07
2022-11-10T15:59:00.619Z,11.13
2022-11-10T16:01:29.789Z,12.27
2022-11-10T16:03:59.308Z,10.05
2022-11-10T16:06:27.541Z,10.20
2022-11-10T16:08:55.610Z,13.38
2022-11-10T16:11:24.369Z,10.93
2022-11-10T16:13:53.822Z,9.65
2022-11-10T16:16:23.921Z,8.82
2022-11-10T16:18:52.233Z,11.02
2022-11-10T16:21:23.751Z,13.27
2022-11-10T16:23:52.137Z,13.10
2022-11-10T16:26:22.955Z,10.85
2022-11-10T16:28:51.772Z,11.75
2022-11-10T16:31:21.917Z,12.18
2022-11-10T16:33:50.617Z,11.55
2022-11-10T16:36:25.184Z,10.35
2022-11-10T16:38:53.254Z,8.57
2022-11-10T16:41:21.499Z,11.13
2022-11-10T16:43:49.436Z,12.77
2022-11-10T16:46:20.680Z,13.25
2022-11-10T16:48:49.653Z,11.63
2022-11-10T16:51:18.013Z,13.90
2022-11-10T16:53:47.298Z,12.27
2022-11-10T16:56:15.892Z,9.07
2022-11-10T16:58:43.868Z,10.60
2022-11-10T17:01:20.047Z,8.73
2022-11-10T17:03:50.494Z,11.75
2022-11-10T17:06:19.512Z,12.05
2022-11-10T17:08:51.209Z,10.40
2022-11-10T17:11:19.194Z,11.68
2022-11-10T17:13:47.139Z,9.65
2022-11-10T17:16:21.171Z,11.65
2022-11-10T17:18:49.817Z,11.32
2022-11-10T17:21:18.118Z,13.57
2022-11-10T17:23:46.070Z,13.82
2022-11-10T17:26:17.101Z,11.73
2022-11-10T17:28:45.035Z,9.30
2022-11-10T17:31:13.877Z,10.52
2022-11-10T17:33:41.804Z,10.40
2022-11-10T17:36:14.981Z,13.38
2022-11-10T17:38:44.092Z,13.35
2022-11-10T17:41:17.424Z,9.55
2022-11-10T17:43:47.570Z,11.88
2022-11-10T17:46:16.194Z,8.70
2022-11-10T17:48:44.571Z,11.88
2022-11-10T17:51:17.313Z,8.57
2022-11-10T17:53:45.201Z,11.77
2022-11-10T17:56:13.164Z,13.75
2022-11-10T17:58:42.493Z,11.13
2022-11-10T18:01:17.516Z,15.75
2022-11-10T18:03:46.086Z,9.82
2022-11-10T18:06:15.688Z,11.27
2022-11-10T18:08:43.789Z,14.30
2022-11-10T18:11:13.700Z,12.93
2022-11-10T18:13:43.867Z,14.07
2022-11-10T18:16:14.006Z,12.15
2022-11-10T18:18:42.311Z,10.85
2022-11-10T18:21:11.060Z,15.75
2022-11-10T18:23:39.010Z,11.98
2022-11-10T18:26:08.308Z,13.27
2022-11-10T18:28:36.676Z,8.98
2022-11-10T18:31:08.775Z,16.25
2022-11-10T18:33:37.006Z,12.02
2022-11-10T18:36:05.342Z,13.80
2022-11-10T18:38:33.301Z,16.70
2022-11-10T18:41:25.530Z,13.10
2022-11-10T18:43:53.504Z,11.77
2022-11-10T18:46:22.810Z,15.45
2022-11-10T18:48:50.737Z,13.55
2022-11-10T18:51:18.724Z,11.80
2022-11-10T18:53:46.660Z,12.35
2022-11-10T18:56:14.685Z,15.10
2022-11-10T18:58:42.572Z,16.30
2022-11-10T19:01:13.788Z,12.18
2022-11-10T19:03:45.644Z,15.95
2022-11-10T19:06:14.842Z,15.90
2022-11-10T19:08:43.891Z,15.32
2022-11-10T19:11:13.894Z,15.02
2022-11-10T19:13:42.438Z,15.20
2022-11-10T19:16:15.253Z,18.05
2022-11-10T19:18:44.571Z,15.05
2022-11-10T19:21:18.263Z,14.40
2022-11-10T19:23:46.860Z,12.55
2022-11-10T19:26:22.432Z,13.52
2022-11-10T19:28:55.420Z,11.43
2022-11-10T19:31:24.694Z,15.38
2022-11-10T19:33:55.656Z,13.30
2022-11-10T19:36:25.268Z,10.40
2022-11-10T19:38:54.795Z,16.55
2022-11-10T19:41:24.647Z,12.55
2022-11-10T19:43:52.932Z,13.80
2022-11-10T19:46:22.983Z,10.70
2022-11-10T19:48:55.822Z,15.35
2022-11-10T19:51:26.286Z,18.40
2022-11-10T19:53:58.647Z,14.85
2022-11-10T19:59:00.235Z,15.10
2022-11-10T20:01:28.347Z,15.70
2022-11-10T20:03:57.921Z,16.92
2022-11-10T20:06:25.944Z,15.65
2022-11-10T20:08:56.878Z,13.18
2022-11-10T20:11:27.347Z,11.90
2022-11-10T20:13:57.324Z,12.68
2022-11-10T20:16:25.240Z,14.65
2022-11-10T20:18:53.383Z,12.75
2022-11-10T20:21:23.980Z,13.80
2022-11-10T20:23:56.505Z,15.88
2022-11-10T20:26:25.196Z,13.88
2022-11-10T20:28:53.209Z,16.33
2022-11-10T20:31:24.343Z,18.48
2022-11-10T20:33:56.588Z,15.20
2022-11-10T20:36:27.879Z,13.70
2022-11-10T20:38:57.260Z,15.70
2022-11-10T20:41:28.434Z,19.75
2022-11-10T20:43:56.743Z,19.13
2022-11-10T20:46:53.090Z,20.10
2022-11-10T20:49:13.215Z,18.88
2022-11-10T20:51:43.455Z,16.85
2022-11-10T20:54:11.380Z,17.27
2022-11-10T20:56:39.416Z,17.88
2022-11-10T20:59:07.606Z,14.57
2022-11-10T21:01:37.491Z,17.90
2022-11-10T21:04:06.199Z,19.10
2022-11-10T21:06:34.267Z,18.00
2022-11-10T21:09:06.793Z,18.63
2022-11-10T21:11:52.520Z,13.50
2022-11-10T21:14:20.675Z,16.50
2022-11-10T21:16:48.723Z,17.25
2022-11-10T21:19:16.895Z,19.55
2022-11-10T21:21:44.919Z,17.02
2022-11-10T21:24:14.280Z,15.13
2022-11-10T21:26:42.317Z,19.02
2022-11-10T21:29:11.520Z,16.38
2022-11-10T21:31:39.412Z,17.58
2022-11-10T21:34:07.513Z,20.33
2022-11-10T21:36:35.469Z,17.65
2022-11-10T21:39:03.412Z,15.27
2022-11-10T21:41:33.114Z,19.85
2022-11-10T21:44:01.155Z,19.65
2022-11-10T21:46:29.122Z,18.38
2022-11-10T21:48:57.273Z,21.15
2022-11-10T21:51:25.364Z,18.88
2022-11-10T21:53:53.206Z,18.42
2022-11-10T21:56:21.172Z,21.83
2022-11-10T21:58:50.429Z,24.33
2022-11-10T22:01:20.507Z,15.98
2022-11-10T22:03:48.620Z,16.80
2022-11-10T22:06:18.180Z,19.55
2022-11-10T22:08:47.807Z,18.70
2022-11-10T22:11:36.995Z,14.50
2022-11-10T22:14:30.234Z,17.52
2022-11-10T22:17:15.744Z,19.10
2022-11-10T22:19:44.476Z,15.15
2022-11-10T22:22:14.269Z,19.83
2022-11-10T22:24:42.676Z,15.70
2022-11-10T22:27:10.568Z,17.90
2022-11-10T22:29:39.821Z,17.48
2022-11-10T22:32:07.675Z,18.77
2022-11-10T22:34:35.590Z,19.27
2022-11-10T22:37:03.709Z,14.23
2022-11-10T22:39:45.506Z,17.90
2022-11-10T22:42:31.211Z,16.23
2022-11-10T22:45:00.504Z,18.45
2022-11-10T22:47:48.441Z,15.05
2022-11-10T22:50:16.501Z,15.13
2022-11-10T22:52:44.407Z,19.23
2022-11-10T22:55:12.270Z,20.95
2022-11-10T22:57:40.180Z,18.95
2022-11-10T23:00:11.066Z,16.80
2022-11-10T23:02:39.005Z,18.95
2022-11-10T23:05:07.562Z,17.67
2022-11-10T23:07:35.440Z,17.35
2022-11-10T23:10:03.398Z,17.42
2022-11-10T23:12:31.288Z,19.13
2022-11-10T23:14:59.151Z,16.33
2022-11-10T23:17:28.337Z,23.20
2022-11-10T23:19:56.291Z,19.40
2022-11-10T23:22:24.171Z,18.25
2022-11-10T23:24:56.992Z,18.17
2022-11-10T23:27:25.409Z,18.25
2022-11-10T23:29:53.331Z,22.05
2022-11-10T23:32:21.201Z,23.92
2022-11-10T23:34:50.404Z,26.42
2022-11-10T23:37:18.466Z,22.75
2022-11-10T23:39:48.527Z,28.40
2022-11-10T23:42:16.431Z,29.13
2022-11-10T23:44:44.300Z,27.95
2022-11-10T23:47:12.366Z,28.48
2022-11-10T23:49:40.265Z,31.85
2022-11-10T23:52:09.476Z,27.05
2022-11-10T23:54:37.445Z,30.35
2022-11-10T23:57:05.759Z,31.73
2022-11-10T23:59:33.649Z,31.40
